Monday, November 20, 2017, 6:53 PM GMT
Back to Local

CWPE, Point Lepreau, N. B.

Location: , , Canada Lat: 45.067
Local Time: 6:53 PM GMT (18:53 GMT) Lon: -66.467
Time Zone: GMT Elev: 3 ft

Show me the last for .
Show Coded

Time T Td Feel RH Dir Speed Gust Alt SLP Vis Weather Sky Remarks
2017-11-20 18:00 35 22 23 60 280° 10 23 - 29.62 0 None
2017-11-20 17:00 36 20 25 51 290° 10 21 - 29.62 0 None
2017-11-20 16:00 36 23 23 59 280° 12 26 - 29.62 0 None
2017-11-20 15:00 34 23 21 63 290° 13 25 - 29.61 0 None
2017-11-20 14:00 31 23 19 70 290° 10 21 - 29.60 0 None
2017-11-20 13:00 33 24 27 68 290° 8 - - 29.57 0 None
2017-11-20 12:00 31 24 25 75 290° 7 - - 29.56 0 None
2017-11-20 11:00 32 23 19 68 280° 10 21 - 29.54 0 None
2017-11-20 10:00 32 23 20 68 270° 9 20 - 29.52 0 None
2017-11-20 09:00 33 24 21 70 300° 9 20 - 29.47 0 None
2017-11-20 08:00 33 25 21 70 290° 10 23 - 29.46 0 None
2017-11-20 07:00 34 27 23 74 280° 9 20 - 29.46 0 None
2017-11-20 06:00 33 26 21 74 280° 12 24 - 29.43 0 None
2017-11-20 05:00 34 28 23 78 280° 10 21 - 29.39 0 None
2017-11-20 04:00 36 29 22 75 280° 15 32 - 29.36 0 None
2017-11-20 03:00 39 34 28 82 290° 13 23 - 29.30 0 None
2017-11-20 02:00 40 35 29 84 280° 13 25 - 29.26 0 Pressure rising rapidly
2017-11-20 01:00 41 38 31 89 300° 12 28 - 29.19 0 Pressure rising rapidly
2017-11-20 00:00 44 41 34 88 300° 17 35 - 29.13 0 None
2017-11-19 23:00 54 53 - 96 200° 14 23 - 29.07 0 None
2017-11-19 22:00 53 54 - 104 190° 17 25 - 29.07 0 None
2017-11-19 21:00 55 53 - 91 190° 21 31 - 29.06 0 None
2017-11-19 20:00 55 55 - 100 180° 23 30 - 29.06 0 None
2017-11-19 19:00 55 55 - 98 190° 18 26 - 29.10 0 None

Support USWX by starting your Amazon purchase here.